Aegean Tiffany — SVAE9 — position and weather

sailwx.info

Track history (hours):
 
Tides and Currents Weather Stations Pressure Air Temp Water Temp Dewpoint Dewpoint Depression Visibility Wind Speed Wind Dir Waves Ship Positions

Aegean Tiffany

Last reported at 2016-Feb-10 17:33 UTC. Time now 2016-Feb-10 17:40 UTC.
Position N 38°02' E 023°36'.

Length 80 m; draft 4.8 m.

Type: Tanker. MMSI: 240870000.

Date/timePositionNaut miles runAvg speedWind from/ knotsBaromVisibWave heightAir tempDewpointWater temp
2016-Feb-10 17:33N 38°02' E 023°36'0 0.0
2016-Feb-10 16:33N 38°02' E 023°36'0 0.0
2016-Feb-10 15:33N 38°02' E 023°36'0 0.0
2016-Feb-10 14:33N 38°02' E 023°36'0 0.0
2016-Feb-10 13:33N 38°02' E 023°36'0 0.0
2016-Feb-10 12:33N 38°02' E 023°36'0 0.0
2016-Feb-10 11:33N 38°02' E 023°36'0 0.0
2016-Feb-10 10:33N 38°02' E 023°36'0 0.0
2016-Feb-10 09:33N 38°02' E 023°36'0 0.0
2016-Feb-10 08:33N 38°02' E 023°36'0 0.0
2016-Feb-10 07:33N 38°02' E 023°36'0 0.0
2016-Feb-10 06:33N 38°02' E 023°36'0 0.0
2016-Feb-10 05:33N 38°02' E 023°36'0 0.0
2016-Feb-10 04:34N 38°02' E 023°36'0 0.0
2016-Feb-10 03:33N 38°02' E 023°36'0 0.0
2016-Feb-10 02:33N 38°02' E 023°36'0 0.0
2016-Feb-10 01:34N 38°02' E 023°36'0 0.0
2016-Feb-10 00:33N 38°02' E 023°36'0 0.0
2016-Feb-09 23:33N 38°02' E 023°36'0 0.0
2016-Feb-09 22:33N 38°02' E 023°36'2 1.9
2016-Feb-09 21:33N 38°02' E 023°33'1 1.0
2016-Feb-09 20:33N 38°02' E 023°32'0 0.0
2016-Feb-09 19:34N 38°02' E 023°32'0 0.0
2016-Feb-09 18:33N 38°02' E 023°32'0 0.1
2016-Feb-09 17:33N 38°02' E 023°32'0 0.0
2016-Feb-09 16:33N 38°02' E 023°32'0 0.2
2016-Feb-09 15:33N 38°02' E 023°32'5 5.1
2016-Feb-09 14:33N 37°57' E 023°34'0 0.0
2016-Feb-09 13:33N 37°57' E 023°34'1 0.6
2016-Feb-09 12:33N 37°57' E 023°33'3 3.3
2016-Feb-09 11:33N 38°01' E 023°32'2 1.6
2016-Feb-09 10:34N 38°02' E 023°32'0 0.3
2016-Feb-09 09:33N 38°02' E 023°32'3 2.7
2016-Feb-09 08:33N 38°01' E 023°29'6 6.1
2016-Feb-09 07:34N 37°57' E 023°23'8 8.0
2016-Feb-09 06:33N 37°55' E 023°13'  
2016-Feb-03 02:24N 37°55' E 023°10'6 7.4
2016-Feb-03 01:33N 37°56' E 023°18'7 6.7
2016-Feb-03 00:33N 37°58' E 023°25'6 5.5
2016-Feb-02 23:33N 38°02' E 023°31'0 0.1
2016-Feb-02 22:34N 38°02' E 023°31'0 0.0
2016-Feb-02 21:34N 38°02' E 023°31'0 0.0
2016-Feb-02 20:34N 38°02' E 023°31'0 0.0
2016-Feb-02 19:33N 38°02' E 023°31'0 0.0
2016-Feb-02 18:34N 38°02' E 023°31'0 0.0
2016-Feb-02 17:33N 38°02' E 023°31'0 0.0
2016-Feb-02 16:34N 38°02' E 023°31'0 0.0
2016-Feb-02 15:33N 38°02' E 023°31'0 0.0
2016-Feb-02 14:33N 38°02' E 023°31'0 0.0
2016-Feb-02 13:34N 38°02' E 023°31'0 0.0
2016-Feb-02 12:34N 38°02' E 023°31'0 0.0
2016-Feb-02 11:34N 38°02' E 023°31'0 0.0
2016-Feb-02 10:34N 38°02' E 023°31'0 0.0
2016-Feb-02 09:31N 38°02' E 023°31'0 0.0
2016-Feb-02 08:33N 38°02' E 023°31'0 0.0
2016-Feb-02 07:33N 38°02' E 023°31'0 0.3
2016-Feb-02 06:33N 38°02' E 023°31'0 0.2
2016-Feb-02 05:34N 38°02' E 023°31'1 0.6
2016-Feb-02 04:33N 38°02' E 023°32'  
Track history (hours):
 
Tides and Currents Weather Stations Pressure Air Temp Water Temp Dewpoint Dewpoint Depression Visibility Wind Speed Wind Dir Waves Ship Positions

Aegean Tiffany

Last reported at 2016-Feb-10 17:33 UTC. Time now 2016-Feb-10 17:40 UTC.
Position N 38°02' E 023°36'.

Length 80 m; draft 4.8 m.

Type: Tanker. MMSI: 240870000.

Date/timePositionNaut miles runAvg speedWind from/ knotsBaromVisibWave heightAir tempDewpointWater temp
2016-Feb-10 17:33N 38°02' E 023°36'0 0.0
2016-Feb-10 16:33N 38°02' E 023°36'0 0.0
2016-Feb-10 15:33N 38°02' E 023°36'0 0.0
2016-Feb-10 14:33N 38°02' E 023°36'0 0.0
2016-Feb-10 13:33N 38°02' E 023°36'0 0.0
2016-Feb-10 12:33N 38°02' E 023°36'0 0.0
2016-Feb-10 11:33N 38°02' E 023°36'0 0.0
2016-Feb-10 10:33N 38°02' E 023°36'0 0.0
2016-Feb-10 09:33N 38°02' E 023°36'0 0.0
2016-Feb-10 08:33N 38°02' E 023°36'0 0.0
2016-Feb-10 07:33N 38°02' E 023°36'0 0.0
2016-Feb-10 06:33N 38°02' E 023°36'0 0.0
2016-Feb-10 05:33N 38°02' E 023°36'0 0.0
2016-Feb-10 04:34N 38°02' E 023°36'0 0.0
2016-Feb-10 03:33N 38°02' E 023°36'0 0.0
2016-Feb-10 02:33N 38°02' E 023°36'0 0.0
2016-Feb-10 01:34N 38°02' E 023°36'0 0.0
2016-Feb-10 00:33N 38°02' E 023°36'0 0.0
2016-Feb-09 23:33N 38°02' E 023°36'0 0.0
2016-Feb-09 22:33N 38°02' E 023°36'2 1.9
2016-Feb-09 21:33N 38°02' E 023°33'1 1.0
2016-Feb-09 20:33N 38°02' E 023°32'0 0.0
2016-Feb-09 19:34N 38°02' E 023°32'0 0.0
2016-Feb-09 18:33N 38°02' E 023°32'0 0.1
2016-Feb-09 17:33N 38°02' E 023°32'0 0.0
2016-Feb-09 16:33N 38°02' E 023°32'0 0.2
2016-Feb-09 15:33N 38°02' E 023°32'5 5.1
2016-Feb-09 14:33N 37°57' E 023°34'0 0.0
2016-Feb-09 13:33N 37°57' E 023°34'1 0.6
2016-Feb-09 12:33N 37°57' E 023°33'3 3.3
2016-Feb-09 11:33N 38°01' E 023°32'2 1.6
2016-Feb-09 10:34N 38°02' E 023°32'0 0.3
2016-Feb-09 09:33N 38°02' E 023°32'3 2.7
2016-Feb-09 08:33N 38°01' E 023°29'6 6.1
2016-Feb-09 07:34N 37°57' E 023°23'8 8.0
2016-Feb-09 06:33N 37°55' E 023°13'  
2016-Feb-03 02:24N 37°55' E 023°10'6 7.4
2016-Feb-03 01:33N 37°56' E 023°18'7 6.7
2016-Feb-03 00:33N 37°58' E 023°25'6 5.5
2016-Feb-02 23:33N 38°02' E 023°31'0 0.1
2016-Feb-02 22:34N 38°02' E 023°31'0 0.0
2016-Feb-02 21:34N 38°02' E 023°31'0 0.0
2016-Feb-02 20:34N 38°02' E 023°31'0 0.0
2016-Feb-02 19:33N 38°02' E 023°31'0 0.0
2016-Feb-02 18:34N 38°02' E 023°31'0 0.0
2016-Feb-02 17:33N 38°02' E 023°31'0 0.0
2016-Feb-02 16:34N 38°02' E 023°31'0 0.0
2016-Feb-02 15:33N 38°02' E 023°31'0 0.0
2016-Feb-02 14:33N 38°02' E 023°31'0 0.0
2016-Feb-02 13:34N 38°02' E 023°31'0 0.0
2016-Feb-02 12:34N 38°02' E 023°31'0 0.0
2016-Feb-02 11:34N 38°02' E 023°31'0 0.0
2016-Feb-02 10:34N 38°02' E 023°31'0 0.0
2016-Feb-02 09:31N 38°02' E 023°31'0 0.0
2016-Feb-02 08:33N 38°02' E 023°31'0 0.0
2016-Feb-02 07:33N 38°02' E 023°31'0 0.3
2016-Feb-02 06:33N 38°02' E 023°31'0 0.2
2016-Feb-02 05:34N 38°02' E 023°31'1 0.6
2016-Feb-02 04:33N 38°02' E 023°32'  

Dump ship's entire track history